createdAt,value
2023-02-20T00:02:27.321Z,1.60
2023-02-20T00:05:29.757Z,1.50
2023-02-20T00:08:32.057Z,2.33
2023-02-20T00:11:35.814Z,1.65
2023-02-20T00:14:38.140Z,1.48
2023-02-20T00:17:41.029Z,1.77
2023-02-20T00:20:43.358Z,2.17
2023-02-20T00:23:46.047Z,1.50
2023-02-20T00:26:51.242Z,1.70
2023-02-20T00:29:53.545Z,1.60
2023-02-20T00:32:57.425Z,1.50
2023-02-20T00:35:59.856Z,1.73
2023-02-20T00:39:02.166Z,1.80
2023-02-20T00:42:07.716Z,2.05
2023-02-20T00:45:10.359Z,2.05
2023-02-20T00:48:13.045Z,2.40
2023-02-20T00:51:15.536Z,1.48
2023-02-20T00:54:17.939Z,1.42
2023-02-20T00:57:22.077Z,2.05
2023-02-20T01:00:26.498Z,1.90
2023-02-20T01:03:28.800Z,2.35
2023-02-20T01:06:31.226Z,2.15
2023-02-20T01:09:33.529Z,2.33
2023-02-20T01:12:37.152Z,2.28
2023-02-20T01:15:39.544Z,2.40
2023-02-20T01:18:41.913Z,2.70
2023-02-20T01:21:44.984Z,2.35
2023-02-20T01:24:47.290Z,2.55
2023-02-20T01:27:52.465Z,2.50
2023-02-20T01:30:56.095Z,2.03
2023-02-20T01:33:58.370Z,2.55
2023-02-20T01:37:02.938Z,2.80
2023-02-20T01:40:06.937Z,7.40
2023-02-20T01:43:11.315Z,2.30
2023-02-20T01:46:45.320Z,3.08
2023-02-20T01:49:50.794Z,2.70
2023-02-20T01:52:54.912Z,2.28
2023-02-20T01:55:59.476Z,2.20
2023-02-20T01:59:05.566Z,3.13
2023-02-20T02:02:08.344Z,2.22
2023-02-20T02:05:11.993Z,3.03
2023-02-20T02:08:15.994Z,2.28
2023-02-20T02:11:20.006Z,2.80
2023-02-20T02:14:23.902Z,2.67
2023-02-20T02:17:51.149Z,2.38
2023-02-20T02:21:27.064Z,2.65
2023-02-20T02:24:50.175Z,2.30
2023-02-20T02:28:23.577Z,2.17
2023-02-20T02:32:09.049Z,2.30
2023-02-20T02:35:29.301Z,2.25
2023-02-20T02:38:39.665Z,1.75
2023-02-20T02:41:45.845Z,2.55
2023-02-20T02:44:52.129Z,2.10
2023-02-20T02:47:59.399Z,1.90
2023-02-20T02:51:05.784Z,1.85
2023-02-20T02:54:11.427Z,1.70
2023-02-20T02:57:21.676Z,1.60
2023-02-20T03:00:27.165Z,1.67
2023-02-20T03:03:32.727Z,2.03
2023-02-20T03:06:37.583Z,1.38
2023-02-20T03:09:46.224Z,2.35
2023-02-20T03:12:50.460Z,1.40
2023-02-20T03:15:54.548Z,1.85
2023-02-20T03:19:00.114Z,1.90
2023-02-20T03:22:03.291Z,2.63
2023-02-20T03:25:12.384Z,1.65
2023-02-20T03:28:19.619Z,1.58
2023-02-20T03:31:27.310Z,1.52
2023-02-20T03:34:48.333Z,1.65
2023-02-20T03:38:09.864Z,1.67
2023-02-20T03:41:33.427Z,2.08
2023-02-20T03:44:36.964Z,1.67
2023-02-20T03:47:43.827Z,1.77
2023-02-20T03:51:06.550Z,1.75
2023-02-20T03:54:16.705Z,1.40
2023-02-20T03:57:27.357Z,1.83
2023-02-20T04:00:33.047Z,1.58
2023-02-20T04:03:39.235Z,1.88
2023-02-20T04:06:43.602Z,1.90
2023-02-20T04:09:47.629Z,1.90
2023-02-20T04:12:52.042Z,1.55
2023-02-20T04:15:59.042Z,1.25
2023-02-20T04:19:01.468Z,1.63
2023-02-20T04:22:06.543Z,1.40
2023-02-20T04:25:13.473Z,1.75
2023-02-20T04:28:18.787Z,1.92
2023-02-20T04:31:32.955Z,1.27
2023-02-20T04:34:36.004Z,1.85
2023-02-20T04:37:40.288Z,1.73
2023-02-20T04:40:43.899Z,3.60
2023-02-20T04:43:49.326Z,2.13
2023-02-20T04:46:51.951Z,2.13
2023-02-20T04:49:55.846Z,1.35
2023-02-20T04:53:01.070Z,1.48
2023-02-20T04:56:05.463Z,1.40
2023-02-20T04:59:11.531Z,1.45
2023-02-20T05:02:14.064Z,1.80
2023-02-20T05:05:19.778Z,2.33
2023-02-20T05:08:22.057Z,1.63
2023-02-20T05:11:24.357Z,1.60
2023-02-20T05:14:28.043Z,1.40
2023-02-20T05:17:30.273Z,2.08
2023-02-20T05:20:51.204Z,2.08
2023-02-20T05:23:53.482Z,2.13
2023-02-20T05:26:56.424Z,1.30
2023-02-20T05:30:00.961Z,2.05
2023-02-20T05:33:03.262Z,2.70
2023-02-20T05:36:06.389Z,1.70
2023-02-20T05:39:08.671Z,1.23
2023-02-20T05:42:10.961Z,1.80
2023-02-20T05:45:16.060Z,1.92
2023-02-20T05:48:18.319Z,2.17
2023-02-20T05:51:22.392Z,1.50
2023-02-20T05:54:24.842Z,2.33
2023-02-20T05:57:27.311Z,1.77
2023-02-20T06:00:30.918Z,2.05
2023-02-20T06:03:33.159Z,1.90
2023-02-20T06:06:36.998Z,1.40
2023-02-20T06:09:42.803Z,2.30
2023-02-20T06:12:45.075Z,1.60
2023-02-20T06:15:48.761Z,1.40
2023-02-20T06:18:51.117Z,1.95
2023-02-20T06:21:54.363Z,2.55
2023-02-20T06:24:56.737Z,1.40
2023-02-20T06:28:00.210Z,1.83
2023-02-20T06:31:04.193Z,2.42
2023-02-20T06:34:07.334Z,2.28
2023-02-20T06:37:09.733Z,1.50
2023-02-20T06:40:12.322Z,1.95
2023-02-20T06:43:14.719Z,1.80
2023-02-20T06:46:18.438Z,1.35
2023-02-20T06:49:20.980Z,1.20
2023-02-20T06:52:23.771Z,1.70
2023-02-20T06:55:26.050Z,1.67
2023-02-20T06:58:28.316Z,1.42
2023-02-20T07:01:39.610Z,1.50
2023-02-20T07:04:42.199Z,1.63
2023-02-20T07:07:44.612Z,1.40
2023-02-20T07:10:46.909Z,1.55
2023-02-20T07:13:49.484Z,2.55
2023-02-20T07:16:53.103Z,2.25
2023-02-20T07:19:55.361Z,2.65
2023-02-20T07:22:57.992Z,1.48
2023-02-20T07:26:00.570Z,1.55
2023-02-20T07:29:02.969Z,2.28
2023-02-20T07:32:09.004Z,2.85
2023-02-20T07:35:11.360Z,1.83
2023-02-20T07:38:15.222Z,1.65
2023-02-20T07:41:17.594Z,2.08
2023-02-20T07:44:19.893Z,1.95
2023-02-20T07:47:23.638Z,1.90
2023-02-20T07:50:25.969Z,1.38
2023-02-20T07:53:28.692Z,1.48
2023-02-20T07:56:31.203Z,1.40
2023-02-20T07:59:33.613Z,2.75
2023-02-20T08:02:37.636Z,1.73
2023-02-20T08:05:48.977Z,1.13
2023-02-20T08:08:52.402Z,1.23
2023-02-20T08:11:54.733Z,1.23
2023-02-20T08:14:57.087Z,0.95
2023-02-20T08:18:00.723Z,1.33
2023-02-20T08:21:05.233Z,0.90
2023-02-20T08:24:07.700Z,0.73
2023-02-20T08:27:10.113Z,1.00
2023-02-20T08:30:14.200Z,0.50
2023-02-20T08:33:25.380Z,3.35
2023-02-20T08:36:27.816Z,1.05
2023-02-20T08:39:30.204Z,0.73
2023-02-20T08:42:33.755Z,1.00
2023-02-20T08:45:36.157Z,0.52
2023-02-20T08:48:40.055Z,0.60
2023-02-20T08:51:42.310Z,0.93
2023-02-20T08:54:45.277Z,0.85
2023-02-20T08:57:48.658Z,1.08
2023-02-20T09:00:51.276Z,1.05
2023-02-20T09:03:55.923Z,1.30
2023-02-20T09:06:58.304Z,2.15
2023-02-20T09:10:00.554Z,1.33
2023-02-20T09:13:03.149Z,1.17
2023-02-20T09:16:07.158Z,0.60
2023-02-20T09:19:11.100Z,0.82
2023-02-20T09:22:13.481Z,1.70
2023-02-20T09:25:16.413Z,0.80
2023-02-20T09:28:19.072Z,1.83
2023-02-20T09:31:21.540Z,1.55
2023-02-20T09:34:25.389Z,1.02
2023-02-20T09:37:27.784Z,1.33
2023-02-20T09:40:32.074Z,1.63
2023-02-20T09:43:41.542Z,1.23
2023-02-20T09:46:45.667Z,1.02
2023-02-20T09:49:50.173Z,0.90
2023-02-20T09:52:58.378Z,1.60
2023-02-20T09:56:01.953Z,1.42
2023-02-20T09:59:08.206Z,1.13
2023-02-20T10:02:15.513Z,1.20
2023-02-20T10:05:22.231Z,1.15
2023-02-20T10:08:26.722Z,1.08
2023-02-20T10:11:39.174Z,1.20
2023-02-20T10:14:51.323Z,0.95
2023-02-20T10:17:59.868Z,0.95
2023-02-20T10:21:08.600Z,0.98
2023-02-20T10:24:23.106Z,0.95
2023-02-20T10:27:32.408Z,1.20
2023-02-20T10:30:38.964Z,1.40
2023-02-20T10:33:45.247Z,1.20
2023-02-20T10:36:51.924Z,1.00
2023-02-20T10:39:58.603Z,1.30
2023-02-20T10:43:03.734Z,1.40
2023-02-20T10:46:12.825Z,2.03
2023-02-20T10:49:17.596Z,1.48
2023-02-20T10:52:34.265Z,2.20
2023-02-20T10:55:40.662Z,2.88
2023-02-20T10:58:47.085Z,1.73
2023-02-20T11:01:52.127Z,1.70
2023-02-20T11:04:57.720Z,1.88
2023-02-20T11:08:03.686Z,1.77
2023-02-20T11:11:25.637Z,2.17
2023-02-20T11:14:40.926Z,1.80
2023-02-20T11:17:44.542Z,2.10
2023-02-20T11:20:47.241Z,3.88
2023-02-20T11:23:51.072Z,2.20
2023-02-20T11:26:57.260Z,1.73
2023-02-20T11:30:02.426Z,1.73
2023-02-20T11:33:06.051Z,3.42
2023-02-20T11:36:14.910Z,2.20
2023-02-20T11:39:21.311Z,2.08
2023-02-20T11:42:23.822Z,2.10
2023-02-20T11:45:27.950Z,2.25
2023-02-20T11:48:30.254Z,3.63
2023-02-20T11:51:35.364Z,2.42
2023-02-20T11:54:38.991Z,2.70
2023-02-20T11:57:44.177Z,1.75
2023-02-20T12:00:47.760Z,2.13
2023-02-20T12:03:55.504Z,2.28
2023-02-20T12:06:57.795Z,4.63
2023-02-20T12:10:05.236Z,2.40
2023-02-20T12:13:12.698Z,2.15
2023-02-20T12:16:28.618Z,2.47
2023-02-20T12:19:41.874Z,2.63
2023-02-20T12:22:46.601Z,5.10
2023-02-20T12:25:59.535Z,2.38
2023-02-20T12:29:10.696Z,2.85
2023-02-20T12:32:21.522Z,3.08
2023-02-20T12:35:31.343Z,2.60
2023-02-20T12:38:40.984Z,2.53
2023-02-20T12:41:57.321Z,2.45
2023-02-20T12:45:17.149Z,2.78
2023-02-20T12:48:29.131Z,2.38
2023-02-20T12:51:38.476Z,2.88
2023-02-20T12:54:47.842Z,3.05
2023-02-20T12:58:00.169Z,4.93
2023-02-20T13:01:05.685Z,3.50
2023-02-20T13:04:19.571Z,3.42
2023-02-20T13:07:25.081Z,3.50
2023-02-20T13:10:31.145Z,2.80
2023-02-20T13:13:38.881Z,3.40
2023-02-20T13:16:45.336Z,3.67
2023-02-20T13:19:55.179Z,3.00
2023-02-20T13:23:02.293Z,3.05
2023-02-20T13:26:44.431Z,2.75
2023-02-20T13:29:58.970Z,3.33
2023-02-20T13:33:18.048Z,3.25
2023-02-20T13:36:42.382Z,2.58
2023-02-20T13:39:44.795Z,2.75
2023-02-20T13:42:47.110Z,3.15
2023-02-20T13:46:12.506Z,3.35
2023-02-20T13:49:50.135Z,2.00
2023-02-20T13:52:57.023Z,3.25
2023-02-20T13:55:59.347Z,2.72
2023-02-20T13:59:01.942Z,3.58
2023-02-20T14:02:16.057Z,2.88
2023-02-20T14:05:21.365Z,2.67
2023-02-20T14:08:23.721Z,2.92
2023-02-20T14:11:28.513Z,2.53
2023-02-20T14:14:32.583Z,3.15
2023-02-20T14:17:39.603Z,2.70
2023-02-20T14:20:42.082Z,3.10
2023-02-20T14:23:44.739Z,2.78
2023-02-20T14:26:48.242Z,2.47
2023-02-20T14:30:05.024Z,4.70
2023-02-20T14:33:20.659Z,3.33
2023-02-20T14:36:44.510Z,3.35
2023-02-20T14:39:49.900Z,2.15
2023-02-20T14:42:52.229Z,2.72
2023-02-20T14:46:01.807Z,3.45
2023-02-20T14:49:08.855Z,2.78
2023-02-20T14:52:13.997Z,3.30
2023-02-20T14:55:18.214Z,2.92
2023-02-20T14:58:23.382Z,3.30
2023-02-20T15:01:39.130Z,3.20
2023-02-20T15:04:49.145Z,3.30
2023-02-20T15:07:51.470Z,11.75
2023-02-20T15:10:55.052Z,4.55
2023-02-20T15:13:58.368Z,3.70
2023-02-20T15:17:09.089Z,2.75
2023-02-20T15:20:20.788Z,3.30
2023-02-20T15:23:28.035Z,2.20
2023-02-20T15:26:32.578Z,2.92
2023-02-20T15:29:35.242Z,3.55
2023-02-20T15:32:39.112Z,1.92
2023-02-20T15:35:42.836Z,2.67
2023-02-20T15:38:45.156Z,2.95
2023-02-20T15:41:48.411Z,2.60
2023-02-20T15:44:50.898Z,3.25
2023-02-20T15:47:53.367Z,3.08
2023-02-20T15:50:57.344Z,2.70
2023-02-20T15:53:59.980Z,3.45
2023-02-20T15:57:02.627Z,3.05
2023-02-20T16:00:05.858Z,2.85
2023-02-20T16:03:08.188Z,2.92
2023-02-20T16:06:12.248Z,2.85
2023-02-20T16:09:14.849Z,3.42
2023-02-20T16:12:20.243Z,2.47
2023-02-20T16:15:25.197Z,3.10
2023-02-20T16:18:27.586Z,2.60
2023-02-20T16:21:31.344Z,2.75
2023-02-20T16:24:36.352Z,3.10
2023-02-20T16:27:38.776Z,3.03
2023-02-20T16:30:45.219Z,4.00
2023-02-20T16:33:49.361Z,2.90
2023-02-20T16:36:53.644Z,3.65
2023-02-20T16:39:56.102Z,2.80
2023-02-20T16:42:58.403Z,3.20
2023-02-20T16:46:00.659Z,4.63
2023-02-20T16:49:03.009Z,2.13
2023-02-20T16:52:17.849Z,2.50
2023-02-20T16:55:23.340Z,2.70
2023-02-20T16:58:25.714Z,2.50
2023-02-20T17:01:28.062Z,1.88
2023-02-20T17:04:30.445Z,1.98
2023-02-20T17:07:34.649Z,2.75
2023-02-20T17:10:37.026Z,2.00
2023-02-20T17:13:39.338Z,2.75
2023-02-20T17:16:41.716Z,2.75
2023-02-20T17:19:44.332Z,2.58
2023-02-20T17:23:02.846Z,3.15
2023-02-20T17:26:08.546Z,2.42
2023-02-20T17:29:11.509Z,3.58
2023-02-20T17:32:15.791Z,2.58
2023-02-20T17:35:18.544Z,1.90
2023-02-20T17:38:22.276Z,3.22
2023-02-20T17:41:24.729Z,2.38
2023-02-20T17:44:28.951Z,1.90
2023-02-20T17:47:33.201Z,3.60
2023-02-20T17:50:35.461Z,2.38
2023-02-20T17:53:39.102Z,1.85
2023-02-20T17:56:42.182Z,1.77
2023-02-20T17:59:45.534Z,2.20
2023-02-20T18:02:47.808Z,2.05
2023-02-20T18:05:50.096Z,2.00
2023-02-20T18:08:53.841Z,2.90
2023-02-20T18:11:56.228Z,2.20
2023-02-20T18:14:59.582Z,2.15
2023-02-20T18:18:02.656Z,1.80
2023-02-20T18:21:05.596Z,1.73
2023-02-20T18:24:09.357Z,2.42
2023-02-20T18:27:12.262Z,2.08
2023-02-20T18:30:15.168Z,2.17
2023-02-20T18:33:17.553Z,2.30
2023-02-20T18:36:20.057Z,2.03
2023-02-20T18:39:24.136Z,2.28
2023-02-20T18:42:26.474Z,2.00
2023-02-20T18:45:28.849Z,2.08
2023-02-20T18:48:31.166Z,2.40
2023-02-20T18:51:36.961Z,2.45
2023-02-20T18:54:40.796Z,2.58
2023-02-20T18:57:45.280Z,2.28
2023-02-20T19:00:47.709Z,2.70
2023-02-20T19:03:52.862Z,2.20
2023-02-20T19:06:55.317Z,2.28
2023-02-20T19:09:59.593Z,2.95
2023-02-20T19:13:04.338Z,2.55
2023-02-20T19:16:07.156Z,4.18
2023-02-20T19:19:13.118Z,2.40
2023-02-20T19:22:16.927Z,2.00
2023-02-20T19:25:21.475Z,3.08
2023-02-20T19:28:23.727Z,2.92
2023-02-20T19:31:26.199Z,2.95
2023-02-20T19:34:28.540Z,2.33
2023-02-20T19:37:30.991Z,2.97
2023-02-20T19:40:34.682Z,2.78
2023-02-20T19:43:36.943Z,3.33
2023-02-20T19:46:39.331Z,4.53
2023-02-20T19:49:44.874Z,3.28
2023-02-20T19:52:47.343Z,3.13
2023-02-20T19:55:54.341Z,4.07
2023-02-20T19:58:56.817Z,4.00
2023-02-20T20:02:00.805Z,4.00
2023-02-20T20:05:03.154Z,3.80
2023-02-20T20:08:06.850Z,4.30
2023-02-20T20:11:10.835Z,4.97
2023-02-20T20:14:13.255Z,5.75
2023-02-20T20:17:15.573Z,5.45
2023-02-20T20:20:19.283Z,4.57
2023-02-20T20:23:21.659Z,4.57
2023-02-20T20:26:27.208Z,4.90
2023-02-20T20:29:29.558Z,4.32
2023-02-20T20:32:31.986Z,4.88
2023-02-20T20:35:34.688Z,4.13
2023-02-20T20:38:37.014Z,4.55
2023-02-20T20:41:45.282Z,4.32
2023-02-20T20:44:47.823Z,4.07
2023-02-20T20:47:50.435Z,4.25
2023-02-20T20:50:52.940Z,4.97
2023-02-20T20:53:55.369Z,4.40
2023-02-20T20:56:59.035Z,4.07
2023-02-20T21:00:01.633Z,3.35
2023-02-20T21:03:05.436Z,5.22
2023-02-20T21:06:08.016Z,4.97
2023-02-20T21:09:10.348Z,4.10
2023-02-20T21:12:17.721Z,4.35
2023-02-20T21:15:20.986Z,4.25
2023-02-20T21:18:23.316Z,4.40
2023-02-20T21:21:26.689Z,4.60
2023-02-20T21:24:29.164Z,3.83
2023-02-20T21:27:32.822Z,3.42
2023-02-20T21:30:35.202Z,4.43
2023-02-20T21:33:37.720Z,4.03
2023-02-20T21:36:40.154Z,4.22
2023-02-20T21:39:42.532Z,4.10
2023-02-20T21:43:04.854Z,4.72
2023-02-20T21:46:09.193Z,3.83
2023-02-20T21:49:11.596Z,3.83
2023-02-20T21:52:14.502Z,3.92
2023-02-20T21:55:18.258Z,3.75
2023-02-20T21:58:41.850Z,4.30
2023-02-20T22:01:44.356Z,4.43
2023-02-20T22:04:46.683Z,3.97
2023-02-20T22:08:07.577Z,3.95
2023-02-20T22:11:28.528Z,4.05
2023-02-20T22:14:50.903Z,4.35
2023-02-20T22:18:12.012Z,4.10
2023-02-20T22:21:36.527Z,4.38
2023-02-20T22:24:57.651Z,3.95
2023-02-20T22:28:18.740Z,4.85
2023-02-20T22:31:41.169Z,4.93
2023-02-20T22:35:11.620Z,5.35
2023-02-20T22:38:33.334Z,4.70
2023-02-20T22:41:54.080Z,6.55
2023-02-20T22:45:15.255Z,5.22
2023-02-20T22:48:37.475Z,5.60
2023-02-20T22:51:58.352Z,5.28
2023-02-20T22:55:22.131Z,5.30
2023-02-20T22:58:42.834Z,5.50
2023-02-20T23:02:03.891Z,5.38
2023-02-20T23:05:26.322Z,5.43
2023-02-20T23:08:47.231Z,5.28
2023-02-20T23:12:08.147Z,5.50
2023-02-20T23:15:29.143Z,5.97
2023-02-20T23:18:50.210Z,5.85
2023-02-20T23:22:12.644Z,5.63
2023-02-20T23:29:03.260Z,6.38
2023-02-20T23:32:24.332Z,6.18
2023-02-20T23:35:45.351Z,5.95
2023-02-20T23:39:09.684Z,6.55
2023-02-20T23:42:30.717Z,6.25
2023-02-20T23:45:51.811Z,6.38
2023-02-20T23:49:12.821Z,6.70
2023-02-20T23:52:33.799Z,6.43
2023-02-20T23:55:55.687Z,6.40
2023-02-20T23:59:16.667Z,5.60
